Time;durP1;ratioP1;P1;durP2;ratioP2;P2;SDS_P1;SDS_P2;PMS_P1;PMS_P2;Temp;Humidity;BMP_temperature;BMP_pressure;BME280_temperature;BME280_humidity;BME280_pressure;Samples;Min_cycle;Max_cycle;Signal;HPM_P1;HPM_P2
2023/10/17 00:00:13;;;;;;;6.20;4.10;;;3.30;90.10;;;2.61;89.38;98256.19;4982551;28;20518;-80
2023/10/17 00:02:41;;;;;;;3.70;3.37;;;3.20;89.10;;;2.54;89.88;98250.66;4990266;28;20460;-83
2023/10/17 00:05:09;;;;;;;4.30;3.37;;;3.20;89.40;;;2.58;89.83;98245.84;5008877;28;20922;-77
2023/10/17 00:07:37;;;;;;;3.60;3.20;;;3.20;89.90;;;2.16;89.89;98196.78;5005557;28;20473;-83
2023/10/17 00:10:08;;;;;;;5.47;3.67;;;3.10;89.90;;;2.35;90.28;98236.56;5008584;28;20813;-82
2023/10/17 00:12:39;;;;;;;6.23;4.10;;;3.00;90.20;;;2.37;90.35;98247.91;5008679;28;20733;-82
2023/10/17 00:15:24;;;;;;;5.63;3.73;;;3.00;90.50;;;2.35;90.72;98241.03;5006479;28;20933;-82
2023/10/17 00:17:54;;;;;;;5.47;3.60;;;3.00;90.50;;;2.52;89.76;98245.50;5010703;28;20442;-83
2023/10/17 00:20:25;;;;;;;5.27;3.87;;;3.10;90.60;;;1.85;90.01;98139.44;5009852;28;20457;-83
2023/10/17 00:22:53;;;;;;;6.13;3.80;;;3.00;90.40;;;2.36;90.44;98230.22;5003825;28;20714;-81
2023/10/17 00:25:21;;;;;;;8.07;3.70;;;3.00;90.50;;;2.31;90.90;98237.03;5002839;28;20451;-82
2023/10/17 00:27:48;;;;;;;5.97;3.97;;;2.90;90.50;;;2.31;91.57;98242.34;5006979;28;20450;-79
2023/10/17 00:30:17;;;;;;;5.30;3.93;;;2.90;90.90;;;2.33;91.42;98245.69;5007246;28;20478;-78
2023/10/17 00:32:44;;;;;;;6.30;3.67;;;2.90;91.10;;;2.47;91.24;98242.44;4990099;28;20606;-79
2023/10/17 00:35:18;;;;;;;5.03;4.17;;;3.00;91.70;;;2.43;89.98;98210.91;5010214;28;21026;-78
2023/10/17 00:37:51;;;;;;;4.20;3.77;;;3.10;91.20;;;2.25;89.46;98167.34;5006856;28;20451;-78
2023/10/17 00:40:34;;;;;;;11.10;4.73;;;3.30;90.40;;;2.49;89.57;98235.13;5008266;28;20459;-78
2023/10/17 00:43:04;;;;;;;4.40;3.83;;;3.20;89.40;;;2.53;89.41;98241.84;5007709;28;20462;-79
2023/10/17 00:45:33;;;;;;;8.63;5.10;;;3.10;89.60;;;2.48;89.63;98235.31;5007715;28;20580;-79
2023/10/17 00:48:02;;;;;;;6.50;4.23;;;3.10;89.90;;;2.36;90.16;98234.75;4999811;28;20452;-78
2023/10/17 00:50:31;;;;;;;4.90;3.63;;;3.00;89.20;;;2.32;90.32;98239.53;5010212;28;20463;-78
2023/10/17 00:53:00;;;;;;;4.83;3.93;;;3.00;90.00;;;2.35;89.83;98227.69;5004708;28;20609;-79
2023/10/17 00:55:28;;;;;;;6.73;4.30;;;3.00;89.80;;;2.39;90.31;98226.41;5003422;28;20486;-78
2023/10/17 00:57:56;;;;;;;5.40;4.53;;;3.00;90.10;;;2.37;90.35;98223.06;5004856;28;20463;-80
2023/10/17 01:00:35;;;;;;;4.63;3.60;;;3.10;90.00;;;2.33;90.37;98221.69;5002734;28;20781;-78
2023/10/17 01:03:10;;;;;;;5.70;4.83;;;3.10;89.30;;;2.29;90.68;98218.53;5003008;28;20462;-79
2023/10/17 01:05:57;;;;;;;7.07;4.63;;;3.00;89.70;;;2.26;90.63;98218.81;5003125;28;20444;-76
2023/10/17 01:08:36;;;;;;;6.30;4.50;;;2.90;90.00;;;2.16;91.30;98218.94;5000302;28;21135;-78
2023/10/17 01:11:09;;;;;;;6.97;4.83;;;2.90;90.00;;;2.08;91.29;98222.38;4988745;28;20462;-78
2023/10/17 01:13:38;;;;;;;5.13;4.30;;;2.80;90.20;;;2.07;91.67;98223.38;4989870;28;20516;-79
2023/10/17 01:16:07;;;;;;;5.73;4.60;;;2.70;90.70;;;2.04;91.93;98217.50;5004490;28;20502;-79
2023/10/17 01:18:36;;;;;;;5.77;5.07;;;2.70;91.00;;;1.92;92.73;98208.94;5009166;28;20962;-77
2023/10/17 01:21:05;;;;;;;7.77;5.50;;;2.60;91.00;;;1.79;92.91;98206.69;5000094;28;20447;-78
2023/10/17 01:23:32;;;;;;;6.00;4.43;;;2.50;91.10;;;1.80;93.15;98213.69;4988346;28;20454;-78
2023/10/17 01:26:05;;;;;;;4.33;3.93;;;2.40;91.40;;;1.87;93.08;98217.38;5006194;28;20454;-79
2023/10/17 01:28:33;;;;;;;4.60;3.93;;;2.50;92.20;;;1.77;92.89;98219.34;4994263;28;20465;-78
2023/10/17 01:31:03;;;;;;;5.13;4.40;;;2.40;92.00;;;1.68;94.16;98213.09;5000409;28;20490;-78
2023/10/17 01:33:30;;;;;;;5.13;4.30;;;2.30;92.30;;;1.76;93.82;98196.34;5003631;28;20442;-78
2023/10/17 01:35:59;;;;;;;10.03;4.73;;;2.40;93.00;;;2.05;92.84;98195.22;5003645;28;21025;-78
2023/10/17 01:38:28;;;;;;;5.90;5.00;;;2.60;93.60;;;2.11;92.21;98184.75;5002539;28;20542;-78
2023/10/17 01:41:00;;;;;;;7.80;5.40;;;2.80;92.60;;;2.28;91.26;98192.88;4998688;28;20455;-78
2023/10/17 01:43:35;;;;;;;6.53;4.90;;;2.90;91.60;;;2.09;91.18;98162.75;4988802;28;20462;-79
2023/10/17 01:46:05;;;;;;;5.63;4.83;;;3.00;90.90;;;2.12;91.50;98196.25;5003631;28;20458;-81
2023/10/17 01:48:33;;;;;;;7.20;4.70;;;2.90;90.50;;;2.15;91.33;98184.44;5004199;28;20536;-79
2023/10/17 01:51:12;;;;;;;8.50;4.73;;;3.00;90.30;;;1.79;90.74;98132.91;5006085;28;21305;-78
2023/10/17 01:53:40;;;;;;;5.43;4.67;;;3.00;90.40;;;1.99;91.06;98164.69;4989274;28;20559;-80
2023/10/17 01:56:14;;;;;;;6.00;4.33;;;3.00;90.20;;;2.22;90.19;98181.00;5002095;28;20517;-79
2023/10/17 01:58:48;;;;;;;6.67;4.60;;;3.00;89.80;;;2.19;90.97;98180.47;4987656;28;20549;-77
2023/10/17 02:01:17;;;;;;;5.30;4.13;;;3.00;89.00;;;2.07;91.23;98162.06;4983851;28;20454;-79
2023/10/17 02:03:45;;;;;;;6.30;4.37;;;3.00;89.50;;;2.12;90.83;98177.59;4988225;28;20481;-78
2023/10/17 02:06:16;;;;;;;7.60;4.17;;;3.00;89.40;;;2.19;90.95;98170.63;5005199;28;20450;-78
2023/10/17 02:08:45;;;;;;;8.40;4.43;;;3.00;89.20;;;2.08;90.43;98160.25;4987214;28;20798;-78
2023/10/17 02:11:23;;;;;;;7.30;5.03;;;2.90;89.50;;;2.16;90.87;98180.78;5005197;28;21343;-78
2023/10/17 02:13:53;;;;;;;5.90;3.90;;;3.00;89.30;;;2.19;90.76;98178.63;5007026;28;20507;-79
2023/10/17 02:16:21;;;;;;;6.00;4.73;;;3.00;89.60;;;2.07;90.93;98158.59;4988231;28;20440;-78
2023/10/17 02:18:49;;;;;;;5.83;4.53;;;3.00;89.60;;;2.10;91.12;98171.59;4991401;28;21027;-78
2023/10/17 02:21:16;;;;;;;6.07;4.23;;;3.00;89.30;;;2.19;90.78;98175.94;5002795;28;20786;-78
2023/10/17 02:23:49;;;;;;;6.03;4.80;;;3.00;88.90;;;2.17;90.92;98172.63;5002659;28;20459;-78
2023/10/17 02:26:22;;;;;;;5.43;4.17;;;3.00;89.10;;;2.13;90.36;98160.59;5003366;28;20568;-78
2023/10/17 02:28:51;;;;;;;8.30;4.43;;;3.00;88.80;;;2.10;90.91;98182.25;5006524;28;20891;-77
2023/10/17 02:31:27;;;;;;;5.93;5.10;;;3.00;88.60;;;2.05;91.27;98182.72;4998088;28;20471;-78
2023/10/17 02:33:55;;;;;;;4.37;3.93;;;2.90;89.00;;;2.02;91.00;98169.72;4989060;28;20556;-78
2023/10/17 02:36:23;;;;;;;5.00;4.27;;;2.90;89.40;;;2.05;91.05;98185.38;5001155;28;20458;-78
2023/10/17 02:38:51;;;;;;;6.47;4.90;;;2.80;89.10;;;1.92;91.05;98184.94;5003893;28;20455;-77
2023/10/17 02:41:21;;;;;;;8.00;4.57;;;2.80;89.10;;;1.94;91.30;98181.16;5004040;28;20453;-78
2023/10/17 02:43:52;;;;;;;6.17;4.80;;;2.80;89.50;;;1.86;90.92;98174.94;5002435;28;20931;-78
2023/10/17 02:46:20;;;;;;;5.87;4.73;;;2.80;89.70;;;1.94;91.20;98182.97;4996386;28;20846;-77
2023/10/17 02:48:47;;;;;;;7.83;4.93;;;2.70;89.80;;;1.71;91.49;98167.50;5004959;28;20631;-79
2023/10/17 02:51:31;;;;;;;8.60;4.87;;;2.60;89.70;;;1.54;91.81;98138.06;4987379;28;20504;-79
2023/10/17 02:53:58;;;;;;;5.40;4.70;;;2.60;90.10;;;1.80;92.06;98181.72;4996738;28;20450;-78
2023/10/17 02:56:27;;;;;;;8.30;5.77;;;2.60;90.30;;;1.74;92.57;98182.31;5002019;28;20482;-78
2023/10/17 02:59:07;;;;;;;7.67;5.07;;;2.60;90.50;;;1.56;92.71;98172.53;5005270;28;20462;-79
2023/10/17 03:01:36;;;;;;;6.87;4.53;;;2.50;90.50;;;1.73;92.27;98183.31;4999873;28;20509;-78
2023/10/17 03:04:08;;;;;;;8.13;5.73;;;2.50;90.80;;;1.60;92.56;98163.25;4986138;28;20522;-79
2023/10/17 03:06:38;;;;;;;9.97;5.10;;;2.50;90.80;;;1.64;93.02;98177.09;4986416;28;20462;-79
2023/10/17 03:09:32;;;;;;;6.97;4.80;;;2.50;90.90;;;1.60;92.78;98191.72;5001022;28;20448;-79
2023/10/17 03:12:17;;;;;;;6.27;4.40;;;2.40;90.80;;;1.59;92.66;98182.88;5003781;28;20470;-80
2023/10/17 03:17:26;;;;;;;5.97;4.60;;;2.30;91.20;;;1.52;93.48;98190.66;4997238;28;20458;-79
2023/10/17 03:19:53;;;;;;;6.83;4.63;;;2.30;91.40;;;1.54;93.16;98198.47;5002660;28;20465;-78
2023/10/17 03:22:24;;;;;;;12.20;5.63;;;2.20;91.70;;;1.47;93.15;98186.78;4984242;28;20970;-78
2023/10/17 03:25:00;;;;;;;6.27;5.20;;;2.20;91.50;;;1.52;93.08;98190.66;5004771;28;20458;-77
2023/10/17 03:27:36;;;;;;;6.83;4.63;;;2.20;91.70;;;1.53;93.51;98186.16;5000672;28;20451;-77
2023/10/17 03:30:08;;;;;;;6.70;4.20;;;2.20;91.90;;;1.57;93.47;98186.69;4989060;28;20496;-78
2023/10/17 03:32:43;;;;;;;5.30;4.43;;;2.20;92.10;;;1.63;93.23;98189.59;4996458;28;20484;-79
2023/10/17 03:35:20;;;;;;;8.10;4.70;;;2.30;92.10;;;1.54;93.61;98193.16;4992025;28;20530;-79
2023/10/17 03:37:47;;;;;;;6.70;5.30;;;2.20;91.60;;;1.54;93.53;98188.69;5000672;28;20464;-79
2023/10/17 03:40:19;;;;;;;6.37;5.70;;;2.30;91.80;;;1.63;93.85;98200.25;5004381;28;20446;-80
2023/10/17 03:42:53;;;;;;;7.13;5.30;;;2.30;92.30;;;1.65;93.53;98189.41;5008737;28;20467;-79
2023/10/17 03:45:26;;;;;;;7.30;4.53;;;2.30;92.10;;;1.56;94.02;98193.84;5008937;28;20462;-78
2023/10/17 03:47:57;;;;;;;7.13;5.33;;;2.30;91.80;;;1.70;94.36;98187.13;4990407;28;20787;-78
2023/10/17 03:50:41;;;;;;;5.13;4.50;;;2.30;92.50;;;1.66;93.98;98159.13;5010391;28;20477;-77
2023/10/17 03:53:14;;;;;;;6.07;5.13;;;2.40;92.80;;;1.81;93.77;98188.72;4988707;28;20985;-78
2023/10/17 03:55:44;;;;;;;6.10;5.33;;;2.40;92.70;;;1.80;93.66;98171.06;4988439;28;20470;-78
2023/10/17 03:58:24;;;;;;;10.87;5.87;;;2.50;92.50;;;1.98;92.76;98187.00;5007722;28;20942;-77
2023/10/17 04:00:51;;;;;;;8.20;5.20;;;2.60;92.10;;;1.95;92.50;98179.31;4987205;28;20458;-78
2023/10/17 04:03:21;;;;;;;7.57;5.80;;;2.70;91.10;;;1.96;92.78;98181.81;5008146;28;20462;-79
2023/10/17 04:05:51;;;;;;;6.00;4.60;;;2.70;91.00;;;2.07;91.92;98193.22;5006270;28;20476;-78
2023/10/17 04:08:25;;;;;;;7.30;4.80;;;2.80;90.80;;;1.93;92.45;98190.13;5002783;28;20505;-79
2023/10/17 04:11:08;;;;;;;8.47;5.47;;;2.70;90.60;;;1.94;92.99;98194.47;5000893;28;20486;-78
2023/10/17 04:13:37;;;;;;;5.87;5.20;;;2.60;91.10;;;1.98;92.24;98192.34;5004679;28;20463;-78
2023/10/17 04:16:09;;;;;;;5.67;4.10;;;2.70;91.30;;;2.05;91.29;98187.22;5001027;28;20439;-77
2023/10/17 04:18:37;;;;;;;4.90;4.40;;;2.80;90.60;;;1.98;91.77;98185.16;5006167;28;20927;-78
2023/10/17 04:21:18;;;;;;;6.93;5.50;;;2.70;90.20;;;1.93;91.88;98192.81;5003931;28;20447;-78
2023/10/17 04:23:49;;;;;;;6.33;5.17;;;2.60;90.40;;;1.85;92.29;98190.06;5004434;28;20460;-79
2023/10/17 04:26:19;;;;;;;6.23;5.20;;;2.60;90.40;;;1.73;92.54;98180.66;4999454;28;20462;-77
2023/10/17 04:28:50;;;;;;;6.70;5.50;;;2.40;90.50;;;1.21;92.84;98123.66;4992280;28;20469;-78
2023/10/17 04:31:25;;;;;;;8.70;5.23;;;2.30;91.00;;;1.22;92.37;98104.03;5004894;28;20543;-78
2023/10/17 04:33:56;;;;;;;7.03;4.83;;;2.30;91.70;;;1.66;92.98;98181.28;5007503;28;20454;-79
2023/10/17 04:36:26;;;;;;;7.47;5.70;;;2.40;91.60;;;1.75;92.64;98173.38;5003163;28;20442;-77
2023/10/17 04:41:42;;;;;;;6.43;5.40;;;2.40;91.20;;;1.63;92.72;98176.25;5000681;28;20467;-78
2023/10/17 04:44:15;;;;;;;7.90;5.67;;;2.40;91.10;;;1.68;92.70;98173.97;5007732;28;20455;-78
2023/10/17 04:46:50;;;;;;;9.30;5.40;;;2.40;91.20;;;1.66;92.99;98175.09;4990111;28;20805;-79
2023/10/17 04:49:18;;;;;;;7.43;5.47;;;2.50;91.20;;;1.61;93.25;98188.91;5008428;28;20455;-79
2023/10/17 04:51:50;;;;;;;7.80;5.37;;;2.40;91.10;;;1.50;93.51;98160.66;5008638;28;20526;-78
2023/10/17 04:54:31;;;;;;;7.80;5.87;;;2.30;91.30;;;1.63;93.29;98183.41;5011136;28;20497;-80
2023/10/17 04:57:00;;;;;;;6.30;5.40;;;2.40;91.30;;;1.63;93.47;98199.38;5012804;28;20534;-80
2023/10/17 04:59:41;;;;;;;7.00;5.77;;;2.40;91.80;;;1.72;93.39;98186.97;5012139;28;20467;-81
2023/10/17 05:02:35;;;;;;;8.30;5.50;;;2.40;92.00;;;1.66;93.42;98173.28;5002021;28;20460;-80
2023/10/17 06:17:07;;;;;;;7.83;6.97;;;3.30;86.20;;;2.48;88.44;98173.94;4972868;28;20458;-71
2023/10/17 06:19:35;;;;;;;6.27;5.00;;;3.30;86.00;;;2.45;88.17;98169.75;4989610;28;20533;-71
2023/10/17 06:30:33;;;;;;;8.97;6.03;;;3.60;85.50;;;2.83;86.42;98202.28;4996623;28;20476;-72
2023/10/17 06:33:05;;;;;;;8.00;5.70;;;3.60;85.10;;;2.74;86.47;98211.25;4997237;28;20476;-72
2023/10/17 06:35:33;;;;;;;6.67;5.77;;;3.60;84.20;;;2.85;86.18;98191.44;5002158;28;20951;-72
2023/10/17 06:38:01;;;;;;;7.50;5.23;;;3.70;84.10;;;2.98;85.21;98199.00;5003437;28;20444;-73
2023/10/17 06:40:33;;;;;;;8.60;5.77;;;3.80;83.90;;;2.93;85.66;98203.97;5003129;28;20789;-71
2023/10/17 06:43:06;;;;;;;8.47;6.00;;;3.80;83.60;;;3.17;85.68;98218.41;4994731;28;20463;-72
2023/10/17 06:45:37;;;;;;;7.10;5.47;;;3.90;83.80;;;3.07;84.57;98162.47;4989005;28;20445;-72
2023/10/17 06:48:08;;;;;;;6.60;5.90;;;4.10;84.20;;;3.55;84.43;98216.13;5005332;28;20458;-70
2023/10/17 06:53:27;;;;;;;7.63;4.67;;;4.30;82.80;;;3.53;82.63;98210.94;5003225;28;20469;-72
2023/10/17 06:55:59;;;;;;;6.30;4.90;;;4.30;82.00;;;3.59;82.70;98216.63;5000746;28;20460;-71
2023/10/17 06:58:27;;;;;;;7.97;5.70;;;4.40;81.60;;;3.63;82.40;98215.28;5005063;28;20453;-71
2023/10/17 07:00:59;;;;;;;12.00;5.40;;;4.40;81.50;;;3.56;81.42;98199.06;4980088;28;20753;-72
2023/10/17 07:03:28;;;;;;;8.67;5.30;;;4.50;81.30;;;3.61;81.62;98217.28;4992567;28;20527;-72
2023/10/17 07:06:11;;;;;;;5.50;4.63;;;4.50;80.80;;;3.69;81.48;98212.78;5006069;28;20507;-72
2023/10/17 07:08:40;;;;;;;6.60;5.27;;;4.50;80.90;;;3.88;80.89;98215.31;5005731;28;20447;-75
2023/10/17 07:11:24;;;;;;;6.57;4.80;;;4.60;80.70;;;4.00;80.28;98208.63;4999747;28;20455;-73
2023/10/17 07:14:10;;;;;;;6.00;4.80;;;4.70;80.60;;;3.96;79.77;98210.78;5004552;28;20660;-74
2023/10/17 07:16:48;;;;;;;4.97;4.30;;;4.80;80.00;;;3.93;79.74;98215.63;4997190;28;20462;-75
2023/10/17 07:22:11;;;;;;;6.17;5.60;;;4.80;80.00;;;4.03;79.64;98231.53;5001443;28;20501;-74
2023/10/17 07:24:44;;;;;;;8.03;5.50;;;4.90;79.90;;;4.28;79.30;98218.09;5005666;28;20519;-72
2023/10/17 07:30:01;;;;;;;5.87;4.90;;;5.10;79.80;;;4.43;79.27;98216.38;4987569;28;20475;-74
2023/10/17 07:32:35;;;;;;;7.43;4.80;;;5.10;79.50;;;4.68;77.55;98213.66;4997579;28;20477;-74
2023/10/17 07:35:04;;;;;;;5.17;4.67;;;5.30;79.30;;;5.00;76.86;98211.00;4988230;28;20490;-74
2023/10/17 07:37:47;;;;;;;7.10;5.00;;;5.50;79.30;;;5.00;75.76;98206.50;4987298;28;20459;-73
2023/10/17 07:40:21;;;;;;;6.80;4.50;;;5.70;78.40;;;4.76;76.77;98183.34;4997839;28;20543;-74
2023/10/17 07:42:49;;;;;;;6.60;4.30;;;5.70;78.20;;;4.90;76.04;98198.66;5001026;28;20470;-74
2023/10/17 07:45:17;;;;;;;8.20;4.27;;;5.70;77.70;;;4.93;76.43;98201.00;4987263;28;20473;-74
2023/10/17 07:47:51;;;;;;;8.87;4.30;;;5.70;78.00;;;5.03;76.21;98200.78;5000398;28;20451;-74
2023/10/17 07:50:20;;;;;;;6.90;5.23;;;5.80;77.80;;;5.03;76.26;98200.78;4985070;28;20466;-74
2023/10/17 07:52:51;;;;;;;5.00;4.50;;;5.80;77.50;;;5.05;75.24;98168.47;4985095;28;20481;-74
2023/10/17 07:55:22;;;;;;;5.53;4.57;;;6.00;77.40;;;5.45;74.74;98213.94;5000481;28;20952;-73
2023/10/17 07:57:52;;;;;;;7.10;5.00;;;6.10;77.40;;;5.27;73.93;98174.88;4984162;28;20793;-75
2023/10/17 08:00:27;;;;;;;7.10;4.80;;;6.20;76.60;;;5.71;73.03;98207.41;4983014;28;20444;-73
2023/10/17 08:02:56;;;;;;;5.47;4.20;;;6.30;76.70;;;5.84;72.09;98206.78;4985806;28;20718;-73
2023/10/17 08:05:26;;;;;;;5.73;3.97;;;6.50;76.20;;;6.02;71.38;98219.91;5000169;28;20506;-74
2023/10/17 08:08:04;;;;;;;3.97;3.50;;;6.60;75.70;;;5.93;72.32;98216.44;4982952;28;20450;-73
2023/10/17 08:10:38;;;;;;;6.17;3.90;;;6.60;75.70;;;6.09;71.40;98200.22;4988929;28;20950;-75
2023/10/17 08:13:07;;;;;;;4.90;3.93;;;6.70;75.60;;;6.27;70.95;98211.63;4997856;28;20529;-74
2023/10/17 08:15:43;;;;;;;11.83;4.40;;;6.90;75.40;;;6.21;71.43;98203.28;4984022;28;20460;-73
2023/10/17 08:18:14;;;;;;;4.03;3.57;;;6.90;75.10;;;6.29;70.61;98198.84;5001391;28;20853;-73
2023/10/17 08:23:42;;;;;;;4.40;3.97;;;7.10;74.40;;;6.17;70.66;98191.28;5009762;28;20458;-74
2023/10/17 08:26:12;;;;;;;6.67;4.70;;;7.00;74.20;;;6.33;70.39;98201.00;4988198;28;20449;-73
2023/10/17 08:28:50;;;;;;;4.70;3.80;;;7.10;74.30;;;6.76;69.23;98211.09;5005915;28;20461;-73
2023/10/17 08:31:22;;;;;;;4.90;3.93;;;7.30;74.30;;;6.90;68.59;98200.50;5005961;28;20457;-73
2023/10/17 08:34:05;;;;;;;4.40;3.60;;;7.60;73.50;;;6.99;67.79;98204.78;5004964;28;20475;-74
2023/10/17 08:36:42;;;;;;;7.33;3.70;;;7.70;73.00;;;7.09;66.92;98174.91;5006248;28;20459;-72
2023/10/17 08:41:57;;;;;;;4.93;3.20;;;8.00;72.80;;;7.48;66.17;98199.72;5001628;28;20503;-74
2023/10/17 08:44:29;;;;;;;3.70;3.40;;;8.10;71.60;;;7.32;65.82;98204.31;4976380;28;20853;-75
2023/10/17 08:46:57;;;;;;;4.43;3.43;;;8.10;71.10;;;7.29;65.87;98204.72;5002283;28;21024;-74
2023/10/17 08:49:27;;;;;;;5.43;3.23;;;8.10;70.70;;;7.44;65.32;98198.44;5003388;28;20937;-74
2023/10/17 08:51:56;;;;;;;4.57;3.63;;;8.20;70.90;;;7.55;64.73;98197.13;5001657;28;20462;-76
2023/10/17 08:54:24;;;;;;;4.73;3.67;;;8.30;69.90;;;7.64;64.57;98188.72;5002828;28;20487;-74
2023/10/17 08:56:53;;;;;;;5.60;3.50;;;8.40;69.80;;;7.34;64.71;98194.22;5001046;28;20464;-73
2023/10/17 08:59:35;;;;;;;4.53;3.10;;;8.30;69.30;;;7.81;64.22;98188.50;5005336;28;20451;-74
2023/10/17 09:02:02;;;;;;;4.27;3.20;;;8.40;69.90;;;8.02;63.04;98176.03;5005620;28;20468;-75
2023/10/17 09:04:33;;;;;;;5.57;4.13;;;8.70;69.20;;;8.11;63.06;98182.91;5004423;28;20475;-75
2023/10/17 09:07:05;;;;;;;7.70;3.70;;;8.80;68.90;;;7.92;63.14;98187.13;5005473;28;20550;-74
2023/10/17 09:09:34;;;;;;;7.77;4.00;;;8.80;68.50;;;8.02;63.13;98195.66;4988925;28;20461;-76
2023/10/17 09:12:19;;;;;;;5.10;3.53;;;8.70;68.50;;;8.26;62.42;98184.66;5002462;28;20532;-75
2023/10/17 09:14:48;;;;;;;3.53;3.10;;;8.90;68.30;;;8.67;61.25;98183.94;5006506;28;20570;-75
2023/10/17 09:17:28;;;;;;;6.70;3.50;;;9.20;67.60;;;8.77;60.35;98181.72;5006280;28;20457;-74
2023/10/17 09:20:01;;;;;;;4.37;3.57;;;9.40;66.90;;;8.81;60.01;98178.59;4992593;28;20607;-74
2023/10/17 09:22:40;;;;;;;3.90;3.23;;;9.40;66.50;;;8.79;60.12;98139.22;5007765;28;20451;-74
2023/10/17 09:25:22;;;;;;;6.07;2.83;;;9.60;66.80;;;9.29;58.29;98185.84;5012639;28;20451;-73
2023/10/17 09:27:56;;;;;;;4.33;2.97;;;9.70;65.50;;;9.16;57.72;98175.84;5005391;28;20551;-74
2023/10/17 09:30:26;;;;;;;5.37;2.90;;;9.80;64.70;;;9.18;58.24;98189.97;5010090;28;20449;-75
2023/10/17 09:32:53;;;;;;;3.43;2.67;;;9.90;64.70;;;9.14;59.05;98164.44;5008248;28;20475;-74
2023/10/17 09:35:20;;;;;;;7.00;2.87;;;9.90;64.80;;;9.26;58.04;98178.16;5010807;28;20449;-74
2023/10/17 09:37:51;;;;;;;5.67;3.03;;;9.90;64.40;;;9.18;58.65;98189.97;5007527;28;20983;-75
2023/10/17 09:40:27;;;;;;;3.00;2.50;;;9.90;64.30;;;9.42;58.16;98185.88;5003570;28;20462;-75
2023/10/17 09:42:55;;;;;;;3.70;3.00;;;10.00;62.90;;;9.49;56.86;98180.50;4991738;28;20439;-74
2023/10/17 09:45:23;;;;;;;5.60;3.03;;;10.10;62.40;;;9.67;56.54;98168.28;5011853;28;20466;-76
2023/10/17 09:47:54;;;;;;;4.93;2.80;;;10.30;62.10;;;9.49;57.05;98175.13;5011689;28;20456;-75
2023/10/17 09:50:22;;;;;;;2.97;2.77;;;10.20;62.00;;;9.26;58.02;98154.72;5010777;28;21020;-74
2023/10/17 09:52:56;;;;;;;3.93;3.13;;;10.10;61.90;;;9.31;57.04;98173.81;5007907;28;20623;-74
2023/10/17 09:55:26;;;;;;;3.87;2.70;;;10.10;61.30;;;9.71;55.95;98172.22;4997048;28;20460;-76
2023/10/17 09:57:59;;;;;;;3.57;2.87;;;10.20;61.30;;;9.55;55.90;98163.50;4993741;28;21022;-75
2023/10/17 10:00:38;;;;;;;3.00;2.60;;;10.20;60.90;;;9.39;56.62;98172.78;4989300;28;20545;-75
2023/10/17 10:03:07;;;;;;;3.10;2.67;;;10.20;60.70;;;9.35;57.06;98168.84;4989258;28;20910;-73
2023/10/17 10:05:34;;;;;;;3.30;2.57;;;10.10;61.30;;;9.28;57.34;98112.22;5006981;28;21024;-74
2023/10/17 10:08:03;;;;;;;3.37;2.90;;;10.30;62.10;;;9.75;56.92;98141.09;5005607;28;20455;-74
2023/10/17 10:10:51;;;;;;;3.73;2.90;;;10.40;60.90;;;9.99;56.06;98157.72;5004092;28;20791;-75
2023/10/17 10:13:21;;;;;;;4.57;2.73;;;10.60;61.20;;;10.48;54.75;98140.22;5001457;28;20852;-74
2023/10/17 10:15:51;;;;;;;7.73;2.93;;;10.90;61.00;;;10.69;54.33;98168.03;5007280;28;20455;-73
2023/10/17 10:18:54;;;;;;;3.60;2.50;;;11.10;60.10;;;10.66;53.97;98159.50;5008860;28;20474;-75
2023/10/17 10:21:22;;;;;;;6.20;2.90;;;11.10;59.80;;;10.75;54.43;98158.22;5008672;28;20542;-75
2023/10/17 10:23:56;;;;;;;5.47;2.87;;;11.30;59.80;;;10.80;53.37;98152.16;5009412;28;20453;-74
2023/10/17 10:26:24;;;;;;;4.00;2.93;;;11.40;59.40;;;10.98;53.02;98133.38;5001937;28;20458;-75
2023/10/17 10:28:52;;;;;;;2.67;2.47;;;11.50;59.10;;;11.26;52.42;98128.69;5007662;28;20507;-74
2023/10/17 10:31:38;;;;;;;3.40;2.13;;;11.70;58.60;;;11.38;52.75;98136.91;5007509;28;20464;-75
2023/10/17 10:34:07;;;;;;;4.27;3.00;;;11.80;58.50;;;11.22;52.44;98140.94;5009379;28;20477;-74
2023/10/17 10:36:37;;;;;;;3.30;2.83;;;12.00;58.40;;;10.81;52.48;98130.34;5006518;28;20462;-73
2023/10/17 10:39:15;;;;;;;5.67;3.40;;;11.70;57.70;;;10.87;53.25;98120.56;5011691;28;20457;-75
2023/10/17 10:41:58;;;;;;;4.93;2.93;;;11.50;58.10;;;11.07;53.40;98104.25;5002403;28;20469;-73
2023/10/17 10:44:27;;;;;;;3.00;2.53;;;11.60;58.60;;;11.12;52.27;98111.69;5005578;28;20540;-75
2023/10/17 10:46:54;;;;;;;3.40;2.70;;;11.70;58.00;;;11.38;52.55;98109.88;5003648;28;20551;-76
2023/10/17 10:49:28;;;;;;;3.30;2.80;;;11.90;58.10;;;11.45;52.23;98110.66;4986676;28;20498;-74
2023/10/17 10:51:58;;;;;;;4.63;3.10;;;12.00;57.80;;;11.44;52.23;98114.38;4997988;28;20577;-73
2023/10/17 10:54:27;;;;;;;5.40;3.07;;;12.00;57.90;;;11.31;52.18;98105.34;5004832;28;20482;-74
2023/10/17 10:56:55;;;;;;;2.87;2.37;;;12.00;57.40;;;11.34;51.63;98107.59;4999926;28;20554;-75
2023/10/17 10:59:23;;;;;;;2.40;2.20;;;11.90;57.20;;;11.17;52.47;98122.69;5007276;28;20467;-74
2023/10/17 11:01:52;;;;;;;6.20;3.17;;;11.80;57.20;;;11.15;51.86;98119.38;5001939;28;20507;-75
2023/10/17 11:04:20;;;;;;;4.00;2.80;;;11.80;56.80;;;10.70;52.36;98121.03;4986204;28;20468;-74
2023/10/17 11:06:50;;;;;;;3.87;2.73;;;11.50;56.60;;;10.82;52.34;98123.91;5002342;28;20505;-74
2023/10/17 11:09:24;;;;;;;4.03;2.80;;;11.50;56.70;;;10.95;52.51;98104.06;5006169;28;20543;-74
2023/10/17 11:11:53;;;;;;;3.87;3.03;;;11.60;57.10;;;11.30;52.16;98098.28;5003903;28;20444;-74
2023/10/17 11:14:22;;;;;;;2.83;2.60;;;11.80;57.30;;;11.43;51.76;98101.91;5006526;28;20483;-75
2023/10/17 11:16:51;;;;;;;3.10;2.80;;;11.90;57.10;;;11.21;52.06;98104.97;5006002;28;20457;-75
2023/10/17 11:19:22;;;;;;;3.10;2.80;;;11.80;57.00;;;11.29;51.85;98088.47;4995435;28;20464;-75
2023/10/17 11:21:57;;;;;;;3.50;2.60;;;11.80;56.90;;;11.22;52.04;98092.28;4988805;28;20467;-75
2023/10/17 11:24:26;;;;;;;4.03;3.07;;;11.70;56.70;;;11.08;52.54;98089.69;5005649;28;20455;-74
2023/10/17 11:26:55;;;;;;;4.10;2.83;;;11.70;56.90;;;10.92;53.43;98085.59;4984556;28;20511;-74
2023/10/17 11:29:26;;;;;;;4.40;3.03;;;11.50;57.20;;;10.82;52.96;98085.22;5003973;28;20459;-74
2023/10/17 11:31:59;;;;;;;3.53;2.90;;;11.50;57.00;;;10.86;53.58;98081.06;4998276;28;20464;-74
2023/10/17 11:34:32;;;;;;;3.47;2.60;;;11.40;57.40;;;10.62;53.54;98065.38;5002907;28;20995;-75
2023/10/17 11:37:04;;;;;;;3.37;2.70;;;11.30;56.90;;;10.36;54.34;98066.25;5000941;28;20526;-73
2023/10/17 11:39:40;;;;;;;4.37;2.83;;;11.10;57.00;;;10.30;54.46;98077.91;5000578;28;23013;-72
2023/10/17 11:42:08;;;;;;;4.10;3.20;;;11.00;57.30;;;10.31;54.27;98068.75;4998905;28;20510;-73
2023/10/17 11:44:46;;;;;;;2.80;2.50;;;11.00;56.90;;;10.21;55.09;98070.03;5003312;28;20455;-74
2023/10/17 11:47:23;;;;;;;3.67;3.13;;;10.90;57.50;;;10.57;53.96;98072.47;5004230;28;20488;-75
2023/10/17 11:49:52;;;;;;;4.13;2.77;;;11.10;57.20;;;10.48;53.92;98053.78;4997394;28;20446;-75
2023/10/17 11:52:20;;;;;;;2.90;2.70;;;11.10;57.10;;;10.42;54.06;98078.94;4997470;28;20460;-74
2023/10/17 11:54:56;;;;;;;6.37;3.10;;;11.10;57.40;;;10.64;52.71;98078.66;5004167;28;20515;-75
2023/10/17 11:57:25;;;;;;;3.80;2.50;;;11.10;56.90;;;10.62;52.52;98084.28;4992119;28;20488;-78
2023/10/17 12:00:06;;;;;;;3.40;2.10;;;11.30;56.40;;;10.87;52.39;98086.22;5008940;28;20439;-74
2023/10/17 12:02:41;;;;;;;5.50;2.50;;;11.40;56.60;;;10.79;51.57;98080.25;5003186;28;21005;-76
2023/10/17 12:05:17;;;;;;;4.27;2.60;;;11.40;55.80;;;10.51;52.49;98086.81;5012461;28;20945;-75
2023/10/17 12:07:46;;;;;;;3.50;2.93;;;11.30;56.00;;;10.65;53.30;98093.81;4994694;28;21107;-73
2023/10/17 12:10:15;;;;;;;2.80;2.30;;;11.20;56.70;;;10.98;52.17;98090.13;5007900;28;20461;-74
2023/10/17 12:12:42;;;;;;;3.33;2.57;;;11.40;56.70;;;11.08;52.57;98089.69;5006405;28;20482;-75
2023/10/17 12:15:13;;;;;;;3.30;2.50;;;11.50;56.70;;;11.05;52.58;98080.13;5004911;28;20821;-75
2023/10/17 12:17:43;;;;;;;4.37;2.90;;;11.60;56.50;;;10.79;53.38;98080.25;5006384;28;20461;-74
2023/10/17 12:20:12;;;;;;;3.80;2.67;;;11.50;56.80;;;10.69;53.20;98070.75;5014926;28;20445;-74
2023/10/17 12:22:40;;;;;;;3.30;2.50;;;11.30;56.40;;;10.69;52.84;98064.50;5002187;28;20513;-74
2023/10/17 12:25:09;;;;;;;2.50;2.30;;;11.30;56.40;;;10.72;53.08;98058.66;5007835;28;20795;-74
2023/10/17 12:27:39;;;;;;;3.70;2.73;;;11.30;56.60;;;10.70;53.64;98058.91;4998143;28;20461;-74
2023/10/17 12:30:09;;;;;;;3.30;2.90;;;11.30;57.00;;;10.67;53.74;98047.69;4992729;28;20480;-74